Flight Track Log - Related Links

Times and Time Zones

All times are in EDT time to prevent confusion due to time zone crossing. See the N36PE flight status page for this flight to view local times or setup timezone preferences in your user account.

Time Position Orientation Groundspeed Altitude Reporting Facility
EDT Latitude Longitude Course Direction KTS MPH feet Rate Location/Type
Thu 07:23:15 PM 28.1227 -81.7687 350° North  Level FlightAware Approximate
Thu 07:24:15 PM 28.1695 -81.7848 352° North  Level FlightAware Approximate
Thu 07:25:15 PM 28.2151 -81.8050 356° North  Level FlightAware Approximate
Thu 07:26:15 PM 28.2624 -81.8192 North  Level FlightAware Approximate
Thu 07:27:15 PM 28.3097 -81.8340 15° North  Level FlightAware Approximate
Thu 07:28:12 PM 28.3667 -81.8167 336° Northwest 125 144 9,500  Level Orlando TRACON
Thu 07:29:07 PM 28.4000 -81.8333 360° North 129 148 10,300 887 Climbing Orlando TRACON
Thu 07:30:07 PM 28.4333 -81.8333 360° North 131 151 11,200 750 Climbing Orlando TRACON
Thu 07:31:07 PM 28.4667 -81.8333 360° North 128 147 11,800 450 Climbing Orlando TRACON
Thu 07:32:07 PM 28.5000 -81.8333 331° Northwest 157 181 12,100 122 Climbing Orlando TRACON
Thu 07:33:34 PM 28.5675 -81.8761 328° Northwest 183 211 12,100  Level Jacksonville Center
Thu 07:34:34 PM 28.6136 -81.9089 330° Northwest 194 223 12,100  Level Jacksonville Center
Thu 07:35:34 PM 28.6597 -81.9392 327° Northwest 194 223 12,100  Level Jacksonville Center
Thu 07:36:34 PM 28.7039 -81.9719 333° Northwest 189 217 12,100  Level Jacksonville Center
Thu 07:37:34 PM 28.7519 -81.9997 329° Northwest 189 217 12,100  Level Jacksonville Center
Thu 07:38:34 PM 28.7961 -82.0303 332° Northwest 189 217 12,100  Level Jacksonville Center
Thu 07:39:34 PM 28.8422 -82.0583 330° Northwest 189 217 12,100  Level Jacksonville Center
Thu 07:40:34 PM 28.8883 -82.0886 328° Northwest 189 217 12,100  Level Jacksonville Center
Thu 07:41:34 PM 28.9344 -82.1214 332° Northwest 189 217 12,100  Level Jacksonville Center
Thu 07:42:34 PM 28.9806 -82.1497 329° Northwest 189 217 12,100  Level Jacksonville Center
Thu 07:43:34 PM 29.0244 -82.1803 328° Northwest 189 217 12,100  Level Jacksonville Center
Thu 07:44:34 PM 29.0706 -82.2131 332° Northwest 189 217 12,100  Level Jacksonville Center
Thu 07:45:34 PM 29.1167 -82.2414 342° North 189 217 12,100  Level Jacksonville Center
Thu 07:46:34 PM 29.1669 -82.2600 339° North 183 211 12,100  Level Jacksonville Center
Thu 07:47:34 PM 29.2150 -82.2811 342° North 183 211 12,100  Level Jacksonville Center
Thu 07:48:34 PM 29.2650 -82.2997 340° North 183 211 12,100  Level Jacksonville Center
Thu 07:49:34 PM 29.3111 -82.3186 340° North 183 211 12,100  Level Jacksonville Center
Thu 07:50:34 PM 29.3614 -82.3397 344° North 183 211 12,100  Level Jacksonville Center
Thu 07:51:34 PM 29.4114 -82.3561 340° North 189 217 12,100  Level Jacksonville Center
Thu 07:52:34 PM 29.4639 -82.3775 342° North 189 217 12,100  Level Jacksonville Center
Thu 07:53:34 PM 29.5139 -82.3961 344° North 189 217 12,100  Level Jacksonville Center
Thu 07:54:34 PM 29.5642 -82.4125 342° North 189 217 12,100  Level Jacksonville Center
Thu 07:55:34 PM 29.6142 -82.4317 341° North 189 217 12,100  Level Jacksonville Center
Thu 07:56:34 PM 29.6667 -82.4528 343° North 189 217 12,100  Level Jacksonville Center
Thu 07:57:34 PM 29.7189 -82.4717 342° North 189 217 12,100  Level Jacksonville Center
Thu 07:58:34 PM 29.7689 -82.4906 341° North 189 217 12,100 50 Level Jacksonville Center
Thu 07:59:34 PM 29.8214 -82.5119 342° North 189 217 12,200 50 Climbing Jacksonville Center
Thu 08:00:34 PM 29.8714 -82.5308 342° North 189 217 12,200  Level Jacksonville Center
Thu 08:01:34 PM 29.9217 -82.5500 342° North 189 217 12,200  Level Jacksonville Center
Thu 08:02:34 PM 29.9717 -82.5689 342° North 189 217 12,200  Level Jacksonville Center
Thu 08:03:34 PM 30.0219 -82.5881 338° Northwest 189 217 12,200  Level Jacksonville Center
Thu 08:04:34 PM 30.0678 -82.6094 343° North 189 217 12,200  Level Jacksonville Center
Thu 08:05:34 PM 30.1200 -82.6283 344° North 189 217 12,200  Level Jacksonville Center
Thu 08:06:34 PM 30.1764 -82.6475 345° North 189 217 12,200  Level Jacksonville Center
Thu 08:07:34 PM 30.2286 -82.6642 345° North 189 217 12,200  Level Jacksonville Center
Thu 08:08:34 PM 30.2808 -82.6808 342° North 189 217 12,200  Level Jacksonville Center
Thu 08:09:34 PM 30.3311 -82.7000 340° North 189 217 12,200  Level Jacksonville Center
Thu 08:10:34 PM 30.3833 -82.7217 342° North 189 217 12,200 -133 Level Jacksonville Center
Thu 08:11:04 PM 30.4083 -82.7311 341° North 194 223 12,000 -100 Descending Jacksonville Center
Thu 08:11:34 PM 30.4333 -82.7408 338° Northwest 189 217 12,100 100 Climbing Jacksonville Center
Thu 08:12:04 PM 30.4586 -82.7528 345° North 190 219 12,100  Level Jacksonville Center
Thu 08:12:34 PM 30.4814 -82.7600 339° North 189 217 12,100  Level Jacksonville Center
Thu 08:13:05 PM 30.5086 -82.7719 338° Northwest 191 220 12,100  Level Jacksonville Center
Thu 08:14:05 PM 30.5589 -82.7961 341° North 192 221 12,100  Level Jacksonville Center
Thu 08:15:06 PM 30.6069 -82.8153 339° North 190 219 12,100  Level Jacksonville Center
Thu 08:16:06 PM 30.6611 -82.8394 338° Northwest 192 221 12,100  Level Jacksonville Center
Thu 08:17:07 PM 30.7069 -82.8611 343° North 192 221 12,100  Level Jacksonville Center
Thu 08:18:08 PM 30.7614 -82.8806 339° North 188 216 12,100  Level Jacksonville Center
Thu 08:19:08 PM 30.8053 -82.8997 340° North 186 214 12,100  Level Jacksonville Center
Thu 08:20:09 PM 30.8575 -82.9217 342° North 184 212 12,100  Level Jacksonville Center
Thu 08:21:09 PM 30.9097 -82.9411 340° North 189 217 12,100  Level Jacksonville Center
Thu 08:22:58 PM 30.9953 -82.9775 340° North 196 226 12,100  Level Jacksonville Center
Thu 08:23:58 PM 31.0453 -82.9992 339° North 191 220 12,100 50 Level Jacksonville Center
Thu 08:24:58 PM 31.0933 -83.0211 336° Northwest 186 214 12,200 50 Climbing Jacksonville Center
Thu 08:25:58 PM 31.1456 -83.0481 341° North 186 214 12,200  Level Jacksonville Center
Thu 08:26:58 PM 31.1933 -83.0675 336° Northwest 186 214 12,200  Level Jacksonville Center
Thu 08:27:58 PM 31.2414 -83.0919 339° North 186 214 12,200  Level Jacksonville Center
Thu 08:28:58 PM 31.2894 -83.1139 339° North 186 214 12,200  Level Jacksonville Center
Thu 08:29:58 PM 31.3394 -83.1358 338° Northwest 186 214 12,200 -50 Level Jacksonville Center
Thu 08:30:58 PM 31.3853 -83.1578 339° North 186 214 12,100 -50 Descending Jacksonville Center
Thu 08:31:58 PM 31.4356 -83.1800 339° North 193 222 12,100  Level Jacksonville Center
Thu 08:32:58 PM 31.4833 -83.2019 339° North 188 216 12,100  Level Jacksonville Center
Thu 08:33:58 PM 31.5272 -83.2217 339° North 188 216 12,100  Level Jacksonville Center
Thu 08:34:58 PM 31.5753 -83.2436 341° North 188 216 12,100  Level Jacksonville Center
Thu 08:35:58 PM 31.6253 -83.2633 339° North 188 216 12,100  Level Jacksonville Center
Thu 08:36:58 PM 31.6753 -83.2856 342° North 188 216 12,100  Level Jacksonville Center
Thu 08:37:58 PM 31.7275 -83.3053 343° North 188 216 12,100  Level Jacksonville Center
Thu 08:38:58 PM 31.7775 -83.3228 342° North 188 216 12,100 -30 Level Jacksonville Center
Thu 08:41:16 PM 31.9014 -83.3711 340° North 196 226 12,000 -30 Descending Atlanta Center
Thu 08:42:16 PM 31.9517 -83.3928 341° North 191 220 12,000  Level Atlanta Center
Thu 08:43:16 PM 32.0039 -83.4144 340° North 191 220 12,000  Level Atlanta Center
Thu 08:44:16 PM 32.0539 -83.4361 340° North 191 220 12,000  Level Atlanta Center
Thu 08:45:16 PM 32.1042 -83.4578 342° North 191 220 12,000  Level Atlanta Center
Thu 08:46:16 PM 32.1544 -83.4769 337° Northwest 191 220 12,000  Level Atlanta Center
Thu 08:47:16 PM 32.2025 -83.5014 340° North 191 220 12,000  Level Atlanta Center
Thu 08:48:16 PM 32.2528 -83.5231 342° North 191 220 12,000  Level Atlanta Center
Thu 08:49:16 PM 32.3028 -83.5425 337° Northwest 191 220 12,000 -200 Level Atlanta Center
Thu 08:50:16 PM 32.3553 -83.5692 340° North 191 220 11,600 -500 Descending Atlanta Center
Thu 08:51:16 PM 32.4117 -83.5936 340° North 197 227 11,000 -600 Descending Atlanta Center
Thu 08:52:16 PM 32.4681 -83.6178 344° North 203 234 10,400 -500 Descending Atlanta Center
Thu 08:53:16 PM 32.5244 -83.6372 360° North 208 239 10,000 -200 Descending Atlanta Center
Thu 08:54:16 PM 32.5808 -83.6369 356° North 202 232 10,000  Level Atlanta Center
Thu 08:55:16 PM 32.6350 -83.6417 356° North 197 227 10,000  Level Atlanta Center
Thu 08:56:16 PM 32.6914 -83.6464 349° North 197 227 10,000  Level Atlanta Center
Thu 08:57:16 PM 32.7458 -83.6586 358° North 197 227 10,000 -400 Level Atlanta Center
Thu 08:58:16 PM 32.8022 -83.6608 352° North 202 232 9,200 -750 Descending Atlanta Center
Thu 09:00:36 PM 32.9333 -83.6833 353° North 198 228 7,500 -342 Descending Atlanta TRACON
Thu 09:07:37 PM 33.2833 -83.7333 349° North 169 194 6,000 -140 Descending Atlanta TRACON
Thu 09:10:37 PM 33.4333 -83.7667 360° North 169 194 6,100 25 Climbing Atlanta TRACON
Thu 09:11:37 PM 33.4667 -83.7667 360° North 169 194 6,100  Level Atlanta TRACON
Thu 09:12:37 PM 33.5167 -83.7667 360° North 167 192 6,100  Level Atlanta TRACON
Thu 09:13:37 PM 33.5667 -83.7667 360° North 164 189 6,100  Level Atlanta TRACON
Thu 09:14:37 PM 33.6000 -83.7667 North 162 186 6,100  Level Atlanta TRACON
Thu 09:16:37 PM 33.7000 -83.7500 360° North 164 189 6,100  Level Atlanta TRACON
Thu 09:17:37 PM 33.7500 -83.7500 23° Northeast 159 183 6,100  Level Atlanta TRACON
Thu 09:18:38 PM 33.7833 -83.7333 331° Northwest 165 190 6,100  Level Atlanta TRACON
Thu 09:19:32 PM 33.8333 -83.7667 337° Northwest 163 188 6,100  Level Atlanta TRACON
Thu 09:20:38 PM 33.8667 -83.7833 326° Northwest 164 189 6,100  Level Atlanta TRACON
Thu 09:22:32 PM 33.9500 -83.8500 320° Northwest 167 192 6,100  Level Atlanta TRACON
Thu 09:23:38 PM 33.9833 -83.8833 320° Northwest 166 191 6,100  Level Atlanta TRACON
Thu 09:24:32 PM 34.0167 -83.9167 309° West 166 191 6,100  Level Atlanta TRACON
Thu 09:25:38 PM 34.0500 -83.9667 320° Northwest 164 189 6,100  Level Atlanta TRACON
Thu 09:26:32 PM 34.0833 -84.0000 320° Northwest 167 192 6,100  Level Atlanta TRACON
Thu 09:28:32 PM 34.1500 -84.0667 309° West 172 198 6,100  Level Atlanta TRACON
Thu 09:29:38 PM 34.1833 -84.1167 320° Northwest 174 200 6,100  Level Atlanta TRACON
Thu 09:30:32 PM 34.2167 -84.1500 320° Northwest 165 190 6,100  Level Atlanta TRACON
Thu 09:31:33 PM 34.2500 -84.1833 320° Northwest 166 191 6,100  Level Atlanta TRACON
Thu 09:32:39 PM 34.2833 -84.2167 314° West 164 189 6,100  Level Atlanta TRACON
Thu 09:33:28 PM 34.3117 -84.2525 310° West 144 166 6,100  Level Atlanta Center
Thu 09:41:15 PM 34.4500 -84.4500 300° West  Level FlightAware Approximate
Thu 09:42:15 PM 34.4747 -84.5014 120° Southeast  Level Estimated
Thu 09:43:15 PM 34.4500 -84.4500 300° West  Level FlightAware Approximate
Thu 09:44:15 PM 34.4747 -84.5014 120° Southeast  Level Estimated
Thu 09:45:15 PM 34.4500 -84.4500 300° West  Level FlightAware Approximate
Thu 09:46:15 PM 34.4747 -84.5014 120° Southeast  Level Estimated
Thu 09:47:15 PM 34.4500 -84.4500 300° West  Level FlightAware Approximate
Thu 09:48:15 PM 34.4747 -84.5014 120° Southeast  Level Estimated
Thu 09:49:15 PM 34.4500 -84.4500 300° West  Level FlightAware Approximate
Thu 09:50:15 PM 34.4747 -84.5014 120° Southeast  Level Estimated
Thu 09:51:15 PM 34.4500 -84.4500 300° West  Level FlightAware Approximate
Thu 09:52:15 PM 34.4747 -84.5014 120° Southeast  Level Estimated
Thu 09:53:15 PM 34.4500 -84.4500 300° West  Level FlightAware Approximate
Thu 09:54:15 PM 34.4747 -84.5014 120° Southeast  Level Estimated
Thu 09:55:15 PM 34.4500 -84.4500 300° West  Level FlightAware Approximate
Thu 09:56:15 PM 34.4747 -84.5014 120° Southeast  Level Estimated
Thu 09:57:15 PM 34.4500 -84.4500 300° West  Level FlightAware Approximate
Thu 09:58:15 PM 34.4747 -84.5014 300° West  Level Estimated

Login

Don't have an account? Register now (free) for customized features, flight alerts, and more!